sensor_id;sensor_type;location;lat;lon;timestamp;P1;durP1;ratioP1;P2;durP2;ratioP2
18176;SDS011;9213;50.858;3.964;2022-07-23T00:01:18;15.30;;;13.10;;
18176;SDS011;9213;50.858;3.964;2022-07-23T00:03:45;19.53;;;12.47;;
18176;SDS011;9213;50.858;3.964;2022-07-23T00:06:12;18.47;;;12.57;;
18176;SDS011;9213;50.858;3.964;2022-07-23T00:08:40;17.97;;;12.60;;
18176;SDS011;9213;50.858;3.964;2022-07-23T00:11:07;22.20;;;11.90;;
18176;SDS011;9213;50.858;3.964;2022-07-23T00:13:34;18.10;;;12.40;;
18176;SDS011;9213;50.858;3.964;2022-07-23T00:16:01;18.33;;;12.63;;
18176;SDS011;9213;50.858;3.964;2022-07-23T00:18:28;21.27;;;13.83;;
18176;SDS011;9213;50.858;3.964;2022-07-23T00:20:55;18.37;;;14.20;;
18176;SDS011;9213;50.858;3.964;2022-07-23T00:23:22;19.57;;;14.10;;
18176;SDS011;9213;50.858;3.964;2022-07-23T00:25:51;19.63;;;14.20;;
18176;SDS011;9213;50.858;3.964;2022-07-23T00:28:18;31.33;;;14.93;;
18176;SDS011;9213;50.858;3.964;2022-07-23T00:30:45;19.93;;;14.33;;
18176;SDS011;9213;50.858;3.964;2022-07-23T00:33:11;22.93;;;14.40;;
18176;SDS011;9213;50.858;3.964;2022-07-23T00:35:39;20.70;;;14.47;;
18176;SDS011;9213;50.858;3.964;2022-07-23T00:38:07;20.63;;;15.40;;
18176;SDS011;9213;50.858;3.964;2022-07-23T00:40:35;21.70;;;15.20;;
18176;SDS011;9213;50.858;3.964;2022-07-23T00:43:04;20.27;;;16.20;;
18176;SDS011;9213;50.858;3.964;2022-07-23T00:45:32;22.17;;;15.73;;
18176;SDS011;9213;50.858;3.964;2022-07-23T00:47:59;22.53;;;16.70;;
18176;SDS011;9213;50.858;3.964;2022-07-23T00:50:26;19.70;;;17.53;;
18176;SDS011;9213;50.858;3.964;2022-07-23T00:52:53;24.80;;;16.50;;
18176;SDS011;9213;50.858;3.964;2022-07-23T00:55:20;22.27;;;16.50;;
18176;SDS011;9213;50.858;3.964;2022-07-23T00:57:47;21.30;;;16.37;;
18176;SDS011;9213;50.858;3.964;2022-07-23T01:00:17;19.97;;;15.23;;
18176;SDS011;9213;50.858;3.964;2022-07-23T01:02:44;24.97;;;15.87;;
18176;SDS011;9213;50.858;3.964;2022-07-23T01:05:11;21.97;;;16.10;;
18176;SDS011;9213;50.858;3.964;2022-07-23T01:07:38;27.73;;;17.40;;
18176;SDS011;9213;50.858;3.964;2022-07-23T01:10:05;26.83;;;18.13;;
18176;SDS011;9213;50.858;3.964;2022-07-23T01:12:53;26.57;;;18.03;;
18176;SDS011;9213;50.858;3.964;2022-07-23T01:15:21;22.47;;;17.53;;
18176;SDS011;9213;50.858;3.964;2022-07-23T01:17:49;22.37;;;16.97;;
18176;SDS011;9213;50.858;3.964;2022-07-23T01:20:16;22.50;;;17.87;;
18176;SDS011;9213;50.858;3.964;2022-07-23T01:22:44;23.03;;;18.37;;
18176;SDS011;9213;50.858;3.964;2022-07-23T01:25:11;21.53;;;18.60;;
18176;SDS011;9213;50.858;3.964;2022-07-23T01:27:39;23.07;;;18.00;;
18176;SDS011;9213;50.858;3.964;2022-07-23T01:30:06;23.47;;;17.60;;
18176;SDS011;9213;50.858;3.964;2022-07-23T01:32:33;21.93;;;18.63;;
18176;SDS011;9213;50.858;3.964;2022-07-23T01:35:00;23.80;;;16.97;;
18176;SDS011;9213;50.858;3.964;2022-07-23T01:37:27;18.93;;;17.00;;
18176;SDS011;9213;50.858;3.964;2022-07-23T01:39:55;21.07;;;17.50;;
18176;SDS011;9213;50.858;3.964;2022-07-23T01:42:22;22.27;;;17.53;;
18176;SDS011;9213;50.858;3.964;2022-07-23T01:44:49;24.53;;;18.27;;
18176;SDS011;9213;50.858;3.964;2022-07-23T01:47:16;20.63;;;17.47;;
18176;SDS011;9213;50.858;3.964;2022-07-23T01:49:43;22.90;;;17.17;;
18176;SDS011;9213;50.858;3.964;2022-07-23T01:52:10;22.87;;;18.20;;
18176;SDS011;9213;50.858;3.964;2022-07-23T01:54:38;23.63;;;16.97;;
18176;SDS011;9213;50.858;3.964;2022-07-23T01:57:07;23.30;;;18.87;;
18176;SDS011;9213;50.858;3.964;2022-07-23T01:59:34;26.27;;;18.70;;
18176;SDS011;9213;50.858;3.964;2022-07-23T02:02:02;23.90;;;18.27;;
18176;SDS011;9213;50.858;3.964;2022-07-23T02:04:30;27.50;;;19.47;;
18176;SDS011;9213;50.858;3.964;2022-07-23T02:07:00;25.90;;;17.47;;
18176;SDS011;9213;50.858;3.964;2022-07-23T02:09:27;24.70;;;17.80;;
18176;SDS011;9213;50.858;3.964;2022-07-23T02:11:54;23.50;;;17.73;;
18176;SDS011;9213;50.858;3.964;2022-07-23T02:14:22;30.07;;;19.70;;
18176;SDS011;9213;50.858;3.964;2022-07-23T02:16:49;28.63;;;18.37;;
18176;SDS011;9213;50.858;3.964;2022-07-23T02:19:16;26.67;;;19.80;;
18176;SDS011;9213;50.858;3.964;2022-07-23T02:21:42;23.93;;;20.40;;
18176;SDS011;9213;50.858;3.964;2022-07-23T02:24:09;26.83;;;19.97;;
18176;SDS011;9213;50.858;3.964;2022-07-23T02:26:36;22.23;;;18.47;;
18176;SDS011;9213;50.858;3.964;2022-07-23T02:29:04;24.77;;;19.17;;
18176;SDS011;9213;50.858;3.964;2022-07-23T02:31:32;23.60;;;17.50;;
18176;SDS011;9213;50.858;3.964;2022-07-23T02:33:59;22.40;;;18.13;;
18176;SDS011;9213;50.858;3.964;2022-07-23T02:36:26;21.67;;;17.90;;
18176;SDS011;9213;50.858;3.964;2022-07-23T02:38:53;19.47;;;17.23;;
18176;SDS011;9213;50.858;3.964;2022-07-23T02:41:20;21.17;;;17.50;;
18176;SDS011;9213;50.858;3.964;2022-07-23T02:43:47;21.67;;;18.40;;
18176;SDS011;9213;50.858;3.964;2022-07-23T02:46:14;22.07;;;17.73;;
18176;SDS011;9213;50.858;3.964;2022-07-23T02:48:42;23.50;;;17.57;;
18176;SDS011;9213;50.858;3.964;2022-07-23T02:51:09;23.10;;;18.03;;
18176;SDS011;9213;50.858;3.964;2022-07-23T02:53:36;24.50;;;18.03;;
18176;SDS011;9213;50.858;3.964;2022-07-23T02:56:03;25.60;;;17.63;;
18176;SDS011;9213;50.858;3.964;2022-07-23T02:58:30;22.47;;;18.30;;
18176;SDS011;9213;50.858;3.964;2022-07-23T03:00:57;22.47;;;16.50;;
18176;SDS011;9213;50.858;3.964;2022-07-23T03:03:24;24.20;;;17.77;;
18176;SDS011;9213;50.858;3.964;2022-07-23T03:05:52;23.10;;;16.97;;
18176;SDS011;9213;50.858;3.964;2022-07-23T03:08:19;22.00;;;16.80;;
18176;SDS011;9213;50.858;3.964;2022-07-23T03:10:46;24.37;;;17.57;;
18176;SDS011;9213;50.858;3.964;2022-07-23T03:13:13;24.27;;;17.03;;
18176;SDS011;9213;50.858;3.964;2022-07-23T03:15:40;20.23;;;16.73;;
18176;SDS011;9213;50.858;3.964;2022-07-23T03:18:06;20.97;;;16.60;;
18176;SDS011;9213;50.858;3.964;2022-07-23T03:20:33;20.20;;;17.40;;
18176;SDS011;9213;50.858;3.964;2022-07-23T03:23:02;21.27;;;17.33;;
18176;SDS011;9213;50.858;3.964;2022-07-23T03:25:28;22.07;;;16.47;;
18176;SDS011;9213;50.858;3.964;2022-07-23T03:27:55;21.83;;;16.20;;
18176;SDS011;9213;50.858;3.964;2022-07-23T03:30:22;22.53;;;17.73;;
18176;SDS011;9213;50.858;3.964;2022-07-23T03:32:49;22.77;;;16.43;;
18176;SDS011;9213;50.858;3.964;2022-07-23T03:35:16;22.63;;;16.50;;
18176;SDS011;9213;50.858;3.964;2022-07-23T03:37:43;22.73;;;16.63;;
18176;SDS011;9213;50.858;3.964;2022-07-23T03:40:11;22.53;;;17.80;;
18176;SDS011;9213;50.858;3.964;2022-07-23T03:42:38;18.73;;;16.73;;
18176;SDS011;9213;50.858;3.964;2022-07-23T03:45:07;24.87;;;17.13;;
18176;SDS011;9213;50.858;3.964;2022-07-23T03:47:34;22.57;;;16.73;;
18176;SDS011;9213;50.858;3.964;2022-07-23T03:50:01;23.83;;;17.30;;
18176;SDS011;9213;50.858;3.964;2022-07-23T03:52:29;21.23;;;15.97;;
18176;SDS011;9213;50.858;3.964;2022-07-23T03:54:55;23.67;;;17.53;;
18176;SDS011;9213;50.858;3.964;2022-07-23T03:57:24;20.87;;;16.67;;
18176;SDS011;9213;50.858;3.964;2022-07-23T03:59:51;19.73;;;16.13;;
18176;SDS011;9213;50.858;3.964;2022-07-23T04:02:17;21.07;;;15.87;;
18176;SDS011;9213;50.858;3.964;2022-07-23T04:04:44;20.20;;;16.03;;
18176;SDS011;9213;50.858;3.964;2022-07-23T04:07:11;21.77;;;17.27;;
18176;SDS011;9213;50.858;3.964;2022-07-23T04:09:38;24.77;;;16.97;;
18176;SDS011;9213;50.858;3.964;2022-07-23T04:12:07;20.73;;;16.67;;
18176;SDS011;9213;50.858;3.964;2022-07-23T04:14:35;21.90;;;16.60;;
18176;SDS011;9213;50.858;3.964;2022-07-23T04:17:02;24.27;;;18.90;;
18176;SDS011;9213;50.858;3.964;2022-07-23T04:19:29;24.20;;;19.20;;
18176;SDS011;9213;50.858;3.964;2022-07-23T04:21:56;23.13;;;18.90;;
18176;SDS011;9213;50.858;3.964;2022-07-23T04:24:23;23.20;;;18.77;;
18176;SDS011;9213;50.858;3.964;2022-07-23T04:26:50;22.40;;;18.20;;
18176;SDS011;9213;50.858;3.964;2022-07-23T04:29:17;25.43;;;19.97;;
18176;SDS011;9213;50.858;3.964;2022-07-23T04:31:45;24.33;;;18.77;;
18176;SDS011;9213;50.858;3.964;2022-07-23T04:34:12;23.93;;;17.60;;
18176;SDS011;9213;50.858;3.964;2022-07-23T04:36:38;20.90;;;18.20;;
18176;SDS011;9213;50.858;3.964;2022-07-23T04:39:05;24.30;;;19.43;;
18176;SDS011;9213;50.858;3.964;2022-07-23T04:41:32;29.30;;;20.40;;
18176;SDS011;9213;50.858;3.964;2022-07-23T04:44:00;26.23;;;19.97;;
18176;SDS011;9213;50.858;3.964;2022-07-23T04:46:26;29.30;;;21.60;;
18176;SDS011;9213;50.858;3.964;2022-07-23T04:48:55;26.97;;;20.47;;
18176;SDS011;9213;50.858;3.964;2022-07-23T04:51:22;32.37;;;20.90;;
18176;SDS011;9213;50.858;3.964;2022-07-23T04:53:49;28.00;;;19.77;;
18176;SDS011;9213;50.858;3.964;2022-07-23T04:56:16;26.07;;;19.87;;
18176;SDS011;9213;50.858;3.964;2022-07-23T04:58:43;30.50;;;21.07;;
18176;SDS011;9213;50.858;3.964;2022-07-23T05:01:10;24.23;;;19.17;;
18176;SDS011;9213;50.858;3.964;2022-07-23T05:03:36;28.10;;;21.30;;
18176;SDS011;9213;50.858;3.964;2022-07-23T05:06:05;25.27;;;19.70;;
18176;SDS011;9213;50.858;3.964;2022-07-23T05:08:31;27.37;;;20.83;;
18176;SDS011;9213;50.858;3.964;2022-07-23T05:10:58;30.77;;;21.37;;
18176;SDS011;9213;50.858;3.964;2022-07-23T05:13:25;27.80;;;20.43;;
18176;SDS011;9213;50.858;3.964;2022-07-23T05:15:52;27.37;;;20.80;;
18176;SDS011;9213;50.858;3.964;2022-07-23T05:18:19;26.43;;;20.50;;
18176;SDS011;9213;50.858;3.964;2022-07-23T05:20:46;25.93;;;20.50;;
18176;SDS011;9213;50.858;3.964;2022-07-23T05:23:14;25.43;;;18.87;;
18176;SDS011;9213;50.858;3.964;2022-07-23T05:25:41;25.83;;;18.60;;
18176;SDS011;9213;50.858;3.964;2022-07-23T05:28:08;29.63;;;19.40;;
18176;SDS011;9213;50.858;3.964;2022-07-23T05:30:35;23.83;;;18.50;;
18176;SDS011;9213;50.858;3.964;2022-07-23T05:33:02;20.67;;;17.10;;
18176;SDS011;9213;50.858;3.964;2022-07-23T05:35:29;22.60;;;17.57;;
18176;SDS011;9213;50.858;3.964;2022-07-23T05:37:55;22.77;;;17.53;;
18176;SDS011;9213;50.858;3.964;2022-07-23T05:40:24;24.40;;;18.70;;
18176;SDS011;9213;50.858;3.964;2022-07-23T05:42:51;22.20;;;17.23;;
18176;SDS011;9213;50.858;3.964;2022-07-23T05:45:18;21.53;;;16.90;;
18176;SDS011;9213;50.858;3.964;2022-07-23T05:47:45;19.90;;;16.50;;
18176;SDS011;9213;50.858;3.964;2022-07-23T05:50:13;22.27;;;16.23;;
18176;SDS011;9213;50.858;3.964;2022-07-23T05:52:42;21.83;;;17.13;;
18176;SDS011;9213;50.858;3.964;2022-07-23T05:55:10;20.43;;;16.43;;
18176;SDS011;9213;50.858;3.964;2022-07-23T05:57:40;20.40;;;16.20;;
18176;SDS011;9213;50.858;3.964;2022-07-23T06:00:08;19.53;;;15.73;;
18176;SDS011;9213;50.858;3.964;2022-07-23T06:02:37;18.50;;;15.83;;
18176;SDS011;9213;50.858;3.964;2022-07-23T06:05:04;19.33;;;15.90;;
18176;SDS011;9213;50.858;3.964;2022-07-23T06:07:32;17.90;;;14.80;;
18176;SDS011;9213;50.858;3.964;2022-07-23T06:09:59;17.60;;;15.30;;
18176;SDS011;9213;50.858;3.964;2022-07-23T06:12:26;19.33;;;15.45;;
18176;SDS011;9213;50.858;3.964;2022-07-23T06:14:54;17.37;;;15.37;;
18176;SDS011;9213;50.858;3.964;2022-07-23T06:17:21;20.37;;;15.43;;
18176;SDS011;9213;50.858;3.964;2022-07-23T06:19:48;22.27;;;16.67;;
18176;SDS011;9213;50.858;3.964;2022-07-23T06:22:15;20.75;;;16.20;;
18176;SDS011;9213;50.858;3.964;2022-07-23T06:24:42;20.27;;;15.90;;
18176;SDS011;9213;50.858;3.964;2022-07-23T06:27:09;18.63;;;15.63;;
18176;SDS011;9213;50.858;3.964;2022-07-23T06:29:36;16.27;;;14.57;;
18176;SDS011;9213;50.858;3.964;2022-07-23T06:32:04;19.77;;;15.60;;
18176;SDS011;9213;50.858;3.964;2022-07-23T06:34:31;21.73;;;14.87;;
18176;SDS011;9213;50.858;3.964;2022-07-23T06:36:58;17.50;;;14.50;;
18176;SDS011;9213;50.858;3.964;2022-07-23T06:39:25;18.37;;;14.77;;
18176;SDS011;9213;50.858;3.964;2022-07-23T06:41:52;19.70;;;14.55;;
18176;SDS011;9213;50.858;3.964;2022-07-23T06:44:19;16.30;;;13.83;;
18176;SDS011;9213;50.858;3.964;2022-07-23T06:46:45;16.43;;;13.63;;
18176;SDS011;9213;50.858;3.964;2022-07-23T06:49:14;15.70;;;14.00;;
18176;SDS011;9213;50.858;3.964;2022-07-23T06:51:40;13.73;;;12.33;;
18176;SDS011;9213;50.858;3.964;2022-07-23T06:54:07;17.67;;;12.90;;
18176;SDS011;9213;50.858;3.964;2022-07-23T06:56:34;14.30;;;11.60;;
18176;SDS011;9213;50.858;3.964;2022-07-23T06:59:01;13.43;;;11.73;;
18176;SDS011;9213;50.858;3.964;2022-07-23T07:01:28;12.68;;;11.38;;
18176;SDS011;9213;50.858;3.964;2022-07-23T07:03:55;13.82;;;11.43;;
18176;SDS011;9213;50.858;3.964;2022-07-23T07:06:24;12.30;;;11.10;;
18176;SDS011;9213;50.858;3.964;2022-07-23T07:08:50;11.98;;;10.57;;
18176;SDS011;9213;50.858;3.964;2022-07-23T07:11:17;12.40;;;10.68;;
18176;SDS011;9213;50.858;3.964;2022-07-23T07:13:44;14.82;;;10.80;;
18176;SDS011;9213;50.858;3.964;2022-07-23T07:16:11;11.82;;;10.65;;
18176;SDS011;9213;50.858;3.964;2022-07-23T07:18:38;14.65;;;10.82;;
18176;SDS011;9213;50.858;3.964;2022-07-23T07:21:05;11.23;;;9.88;;
18176;SDS011;9213;50.858;3.964;2022-07-23T07:23:33;11.68;;;10.02;;
18176;SDS011;9213;50.858;3.964;2022-07-23T07:26:00;11.75;;;10.48;;
18176;SDS011;9213;50.858;3.964;2022-07-23T07:28:27;11.77;;;10.32;;
18176;SDS011;9213;50.858;3.964;2022-07-23T07:30:54;11.48;;;9.90;;
18176;SDS011;9213;50.858;3.964;2022-07-23T07:33:21;11.85;;;9.93;;
18176;SDS011;9213;50.858;3.964;2022-07-23T07:35:48;11.05;;;10.05;;
18176;SDS011;9213;50.858;3.964;2022-07-23T07:38:15;14.07;;;9.77;;
18176;SDS011;9213;50.858;3.964;2022-07-23T07:40:43;11.15;;;10.05;;
18176;SDS011;9213;50.858;3.964;2022-07-23T07:43:10;10.35;;;9.25;;
18176;SDS011;9213;50.858;3.964;2022-07-23T07:45:37;11.18;;;9.75;;
18176;SDS011;9213;50.858;3.964;2022-07-23T07:48:04;11.18;;;9.32;;
18176;SDS011;9213;50.858;3.964;2022-07-23T07:50:31;11.20;;;9.65;;
18176;SDS011;9213;50.858;3.964;2022-07-23T07:52:58;11.05;;;9.52;;
18176;SDS011;9213;50.858;3.964;2022-07-23T07:55:25;10.38;;;9.30;;
18176;SDS011;9213;50.858;3.964;2022-07-23T07:57:54;9.65;;;8.75;;
18176;SDS011;9213;50.858;3.964;2022-07-23T08:00:21;10.60;;;9.43;;
18176;SDS011;9213;50.858;3.964;2022-07-23T08:02:49;10.60;;;9.50;;
18176;SDS011;9213;50.858;3.964;2022-07-23T08:05:18;9.38;;;8.55;;
18176;SDS011;9213;50.858;3.964;2022-07-23T08:07:46;10.57;;;9.48;;
18176;SDS011;9213;50.858;3.964;2022-07-23T08:10:14;11.13;;;9.70;;
18176;SDS011;9213;50.858;3.964;2022-07-23T08:12:41;8.52;;;7.63;;
18176;SDS011;9213;50.858;3.964;2022-07-23T08:15:12;8.63;;;7.57;;
18176;SDS011;9213;50.858;3.964;2022-07-23T08:17:39;10.13;;;7.65;;
18176;SDS011;9213;50.858;3.964;2022-07-23T08:20:07;10.63;;;8.07;;
18176;SDS011;9213;50.858;3.964;2022-07-23T08:22:45;9.55;;;8.55;;
18176;SDS011;9213;50.858;3.964;2022-07-23T08:25:15;8.95;;;7.78;;
18176;SDS011;9213;50.858;3.964;2022-07-23T08:27:42;10.15;;;7.10;;
18176;SDS011;9213;50.858;3.964;2022-07-23T08:30:09;7.95;;;6.88;;
18176;SDS011;9213;50.858;3.964;2022-07-23T08:32:47;9.35;;;7.88;;
18176;SDS011;9213;50.858;3.964;2022-07-23T08:35:15;8.18;;;7.25;;
18176;SDS011;9213;50.858;3.964;2022-07-23T08:37:42;8.93;;;7.28;;
18176;SDS011;9213;50.858;3.964;2022-07-23T08:40:09;8.30;;;6.75;;
18176;SDS011;9213;50.858;3.964;2022-07-23T08:42:37;8.10;;;6.03;;
18176;SDS011;9213;50.858;3.964;2022-07-23T08:45:04;9.50;;;6.15;;
18176;SDS011;9213;50.858;3.964;2022-07-23T08:47:35;5.57;;;5.03;;
18176;SDS011;9213;50.858;3.964;2022-07-23T08:50:04;6.03;;;5.43;;
18176;SDS011;9213;50.858;3.964;2022-07-23T08:52:33;5.70;;;5.13;;
18176;SDS011;9213;50.858;3.964;2022-07-23T08:55:01;8.45;;;5.63;;
18176;SDS011;9213;50.858;3.964;2022-07-23T08:57:29;10.95;;;4.95;;
18176;SDS011;9213;50.858;3.964;2022-07-23T08:59:56;5.40;;;4.68;;
18176;SDS011;9213;50.858;3.964;2022-07-23T09:02:23;5.72;;;5.22;;
18176;SDS011;9213;50.858;3.964;2022-07-23T09:04:51;5.03;;;4.15;;
18176;SDS011;9213;50.858;3.964;2022-07-23T09:07:18;4.22;;;3.40;;
18176;SDS011;9213;50.858;3.964;2022-07-23T09:09:46;6.40;;;3.30;;
18176;SDS011;9213;50.858;3.964;2022-07-23T09:12:13;4.35;;;3.50;;
18176;SDS011;9213;50.858;3.964;2022-07-23T09:14:40;4.55;;;3.65;;
18176;SDS011;9213;50.858;3.964;2022-07-23T09:17:09;5.05;;;4.25;;
18176;SDS011;9213;50.858;3.964;2022-07-23T09:19:36;5.13;;;3.67;;
18176;SDS011;9213;50.858;3.964;2022-07-23T09:22:18;5.28;;;4.63;;
18176;SDS011;9213;50.858;3.964;2022-07-23T09:27:45;5.35;;;3.75;;
18176;SDS011;9213;50.858;3.964;2022-07-23T09:30:13;5.40;;;4.18;;
18176;SDS011;9213;50.858;3.964;2022-07-23T09:32:40;6.25;;;4.20;;
18176;SDS011;9213;50.858;3.964;2022-07-23T09:35:07;4.38;;;3.78;;
18176;SDS011;9213;50.858;3.964;2022-07-23T09:37:36;6.68;;;3.42;;
18176;SDS011;9213;50.858;3.964;2022-07-23T09:40:04;3.63;;;3.30;;
18176;SDS011;9213;50.858;3.964;2022-07-23T09:42:32;4.15;;;3.03;;
18176;SDS011;9213;50.858;3.964;2022-07-23T09:44:59;4.10;;;3.70;;
18176;SDS011;9213;50.858;3.964;2022-07-23T09:47:29;4.30;;;3.75;;
18176;SDS011;9213;50.858;3.964;2022-07-23T09:49:58;7.13;;;4.00;;
18176;SDS011;9213;50.858;3.964;2022-07-23T09:52:26;3.85;;;3.47;;
18176;SDS011;9213;50.858;3.964;2022-07-23T09:54:59;4.43;;;4.03;;
18176;SDS011;9213;50.858;3.964;2022-07-23T09:57:27;5.15;;;3.80;;
18176;SDS011;9213;50.858;3.964;2022-07-23T09:59:53;5.60;;;3.78;;
18176;SDS011;9213;50.858;3.964;2022-07-23T10:02:26;7.28;;;4.13;;
18176;SDS011;9213;50.858;3.964;2022-07-23T10:04:57;4.78;;;4.10;;
18176;SDS011;9213;50.858;3.964;2022-07-23T10:07:26;7.43;;;4.90;;
18176;SDS011;9213;50.858;3.964;2022-07-23T10:09:55;5.80;;;4.47;;
18176;SDS011;9213;50.858;3.964;2022-07-23T10:12:24;4.50;;;4.10;;
18176;SDS011;9213;50.858;3.964;2022-07-23T10:15:21;5.38;;;4.30;;
18176;SDS011;9213;50.858;3.964;2022-07-23T10:17:50;5.38;;;4.60;;
18176;SDS011;9213;50.858;3.964;2022-07-23T10:20:17;6.50;;;4.45;;
18176;SDS011;9213;50.858;3.964;2022-07-23T10:22:44;5.78;;;4.78;;
18176;SDS011;9213;50.858;3.964;2022-07-23T10:25:18;4.88;;;4.47;;
18176;SDS011;9213;50.858;3.964;2022-07-23T10:28:02;5.10;;;3.90;;
18176;SDS011;9213;50.858;3.964;2022-07-23T10:30:36;5.40;;;4.20;;
18176;SDS011;9213;50.858;3.964;2022-07-23T10:33:12;4.20;;;3.80;;
18176;SDS011;9213;50.858;3.964;2022-07-23T10:35:48;6.82;;;4.05;;
18176;SDS011;9213;50.858;3.964;2022-07-23T10:38:24;5.07;;;3.83;;
18176;SDS011;9213;50.858;3.964;2022-07-23T10:40:55;5.15;;;4.40;;
18176;SDS011;9213;50.858;3.964;2022-07-23T10:43:25;6.35;;;4.13;;
18176;SDS011;9213;50.858;3.964;2022-07-23T10:45:53;5.95;;;3.33;;
18176;SDS011;9213;50.858;3.964;2022-07-23T10:48:20;5.40;;;4.47;;
18176;SDS011;9213;50.858;3.964;2022-07-23T10:51:07;4.57;;;3.85;;
18176;SDS011;9213;50.858;3.964;2022-07-23T10:53:56;5.53;;;4.20;;
18176;SDS011;9213;50.858;3.964;2022-07-23T10:59:18;3.50;;;3.20;;
18176;SDS011;9213;50.858;3.964;2022-07-23T11:01:45;4.32;;;3.75;;
18176;SDS011;9213;50.858;3.964;2022-07-23T11:04:12;5.65;;;3.60;;
18176;SDS011;9213;50.858;3.964;2022-07-23T11:09:40;4.03;;;3.33;;
18176;SDS011;9213;50.858;3.964;2022-07-23T11:15:05;3.88;;;3.22;;
18176;SDS011;9213;50.858;3.964;2022-07-23T11:17:35;3.53;;;3.22;;
18176;SDS011;9213;50.858;3.964;2022-07-23T11:20:13;5.45;;;3.05;;
18176;SDS011;9213;50.858;3.964;2022-07-23T11:22:47;3.70;;;3.35;;
18176;SDS011;9213;50.858;3.964;2022-07-23T11:25:28;4.05;;;3.05;;
18176;SDS011;9213;50.858;3.964;2022-07-23T11:28:10;5.57;;;3.40;;
18176;SDS011;9213;50.858;3.964;2022-07-23T11:30:42;4.60;;;3.10;;
18176;SDS011;9213;50.858;3.964;2022-07-23T11:33:19;5.10;;;3.33;;
18176;SDS011;9213;50.858;3.964;2022-07-23T11:35:49;4.63;;;3.22;;
18176;SDS011;9213;50.858;3.964;2022-07-23T11:38:28;5.88;;;3.00;;
18176;SDS011;9213;50.858;3.964;2022-07-23T11:40:57;4.75;;;2.90;;
18176;SDS011;9213;50.858;3.964;2022-07-23T11:43:24;5.43;;;3.53;;
18176;SDS011;9213;50.858;3.964;2022-07-23T11:45:53;5.30;;;3.30;;
18176;SDS011;9213;50.858;3.964;2022-07-23T11:48:24;3.70;;;3.40;;
18176;SDS011;9213;50.858;3.964;2022-07-23T11:50:52;5.97;;;3.30;;
18176;SDS011;9213;50.858;3.964;2022-07-23T11:53:23;3.42;;;2.80;;
18176;SDS011;9213;50.858;3.964;2022-07-23T11:55:51;4.20;;;2.92;;
18176;SDS011;9213;50.858;3.964;2022-07-23T11:58:19;5.85;;;3.38;;
18176;SDS011;9213;50.858;3.964;2022-07-23T12:00:46;3.72;;;3.38;;
18176;SDS011;9213;50.858;3.964;2022-07-23T12:03:14;3.88;;;3.30;;
18176;SDS011;9213;50.858;3.964;2022-07-23T12:05:41;4.20;;;3.10;;
18176;SDS011;9213;50.858;3.964;2022-07-23T12:08:09;4.43;;;3.70;;
18176;SDS011;9213;50.858;3.964;2022-07-23T12:10:37;3.35;;;2.92;;
18176;SDS011;9213;50.858;3.964;2022-07-23T12:13:07;3.70;;;3.13;;
18176;SDS011;9213;50.858;3.964;2022-07-23T12:15:36;3.40;;;3.00;;
18176;SDS011;9213;50.858;3.964;2022-07-23T12:18:06;4.75;;;3.08;;
18176;SDS011;9213;50.858;3.964;2022-07-23T12:20:37;4.50;;;2.95;;
18176;SDS011;9213;50.858;3.964;2022-07-23T12:23:07;4.40;;;2.58;;
18176;SDS011;9213;50.858;3.964;2022-07-23T12:25:35;2.72;;;2.53;;
18176;SDS011;9213;50.858;3.964;2022-07-23T12:28:04;4.95;;;3.20;;
18176;SDS011;9213;50.858;3.964;2022-07-23T12:30:33;3.90;;;3.40;;
18176;SDS011;9213;50.858;3.964;2022-07-23T12:33:03;5.35;;;3.33;;
18176;SDS011;9213;50.858;3.964;2022-07-23T12:35:32;3.83;;;3.35;;
18176;SDS011;9213;50.858;3.964;2022-07-23T12:38:03;3.80;;;2.88;;
18176;SDS011;9213;50.858;3.964;2022-07-23T12:40:32;4.65;;;3.40;;
18176;SDS011;9213;50.858;3.964;2022-07-23T12:43:01;4.20;;;3.03;;
18176;SDS011;9213;50.858;3.964;2022-07-23T12:45:41;4.13;;;2.90;;
18176;SDS011;9213;50.858;3.964;2022-07-23T12:48:15;4.03;;;3.00;;
18176;SDS011;9213;50.858;3.964;2022-07-23T12:50:44;4.07;;;3.20;;
18176;SDS011;9213;50.858;3.964;2022-07-23T12:53:17;3.08;;;2.72;;
18176;SDS011;9213;50.858;3.964;2022-07-23T12:55:46;3.92;;;2.72;;
18176;SDS011;9213;50.858;3.964;2022-07-23T12:58:14;3.92;;;3.35;;
18176;SDS011;9213;50.858;3.964;2022-07-23T13:01:00;4.55;;;3.17;;
18176;SDS011;9213;50.858;3.964;2022-07-23T13:03:31;3.60;;;3.30;;
18176;SDS011;9213;50.858;3.964;2022-07-23T13:06:04;3.50;;;3.20;;
18176;SDS011;9213;50.858;3.964;2022-07-23T13:08:33;4.40;;;3.15;;
18176;SDS011;9213;50.858;3.964;2022-07-23T13:11:02;3.92;;;2.90;;
18176;SDS011;9213;50.858;3.964;2022-07-23T13:13:31;7.97;;;3.63;;
18176;SDS011;9213;50.858;3.964;2022-07-23T13:15:59;4.53;;;2.85;;
18176;SDS011;9213;50.858;3.964;2022-07-23T13:18:27;6.05;;;3.10;;
18176;SDS011;9213;50.858;3.964;2022-07-23T13:20:54;3.55;;;3.05;;
18176;SDS011;9213;50.858;3.964;2022-07-23T13:23:22;3.40;;;3.05;;
18176;SDS011;9213;50.858;3.964;2022-07-23T13:25:51;4.80;;;3.42;;
18176;SDS011;9213;50.858;3.964;2022-07-23T13:28:18;4.57;;;3.40;;
18176;SDS011;9213;50.858;3.964;2022-07-23T13:30:46;3.88;;;3.20;;
18176;SDS011;9213;50.858;3.964;2022-07-23T13:33:14;3.80;;;3.13;;
18176;SDS011;9213;50.858;3.964;2022-07-23T13:35:42;5.28;;;2.97;;
18176;SDS011;9213;50.858;3.964;2022-07-23T13:38:09;4.72;;;3.20;;
18176;SDS011;9213;50.858;3.964;2022-07-23T13:40:36;5.82;;;3.70;;
18176;SDS011;9213;50.858;3.964;2022-07-23T13:43:06;4.95;;;3.53;;
18176;SDS011;9213;50.858;3.964;2022-07-23T13:45:33;3.63;;;3.10;;
18176;SDS011;9213;50.858;3.964;2022-07-23T13:48:01;4.82;;;3.55;;
18176;SDS011;9213;50.858;3.964;2022-07-23T13:50:28;6.63;;;3.38;;
18176;SDS011;9213;50.858;3.964;2022-07-23T13:52:55;3.90;;;3.50;;
18176;SDS011;9213;50.858;3.964;2022-07-23T13:55:22;3.88;;;3.30;;
18176;SDS011;9213;50.858;3.964;2022-07-23T13:57:49;3.53;;;3.22;;
18176;SDS011;9213;50.858;3.964;2022-07-23T14:00:18;3.75;;;3.45;;
18176;SDS011;9213;50.858;3.964;2022-07-23T14:02:45;4.15;;;3.72;;
18176;SDS011;9213;50.858;3.964;2022-07-23T14:05:12;5.40;;;3.60;;
18176;SDS011;9213;50.858;3.964;2022-07-23T14:07:39;4.47;;;3.67;;
18176;SDS011;9213;50.858;3.964;2022-07-23T14:10:08;4.22;;;3.50;;
18176;SDS011;9213;50.858;3.964;2022-07-23T14:12:35;4.80;;;3.53;;
18176;SDS011;9213;50.858;3.964;2022-07-23T14:15:03;4.20;;;3.80;;
18176;SDS011;9213;50.858;3.964;2022-07-23T14:17:34;4.13;;;3.63;;
18176;SDS011;9213;50.858;3.964;2022-07-23T14:20:02;4.40;;;3.80;;
18176;SDS011;9213;50.858;3.964;2022-07-23T14:22:30;4.50;;;4.10;;
18176;SDS011;9213;50.858;3.964;2022-07-23T14:24:57;5.13;;;4.35;;
18176;SDS011;9213;50.858;3.964;2022-07-23T14:27:24;4.50;;;4.05;;
18176;SDS011;9213;50.858;3.964;2022-07-23T14:29:52;4.28;;;3.88;;
18176;SDS011;9213;50.858;3.964;2022-07-23T14:32:18;4.43;;;4.03;;
18176;SDS011;9213;50.858;3.964;2022-07-23T14:34:47;5.82;;;3.92;;
18176;SDS011;9213;50.858;3.964;2022-07-23T14:37:14;4.72;;;4.22;;
18176;SDS011;9213;50.858;3.964;2022-07-23T14:39:42;4.72;;;4.22;;
18176;SDS011;9213;50.858;3.964;2022-07-23T14:42:09;4.50;;;4.10;;
18176;SDS011;9213;50.858;3.964;2022-07-23T14:44:37;7.90;;;5.05;;
18176;SDS011;9213;50.858;3.964;2022-07-23T14:47:05;4.80;;;4.10;;
18176;SDS011;9213;50.858;3.964;2022-07-23T14:49:32;4.93;;;4.43;;
18176;SDS011;9213;50.858;3.964;2022-07-23T14:52:01;4.65;;;4.20;;
18176;SDS011;9213;50.858;3.964;2022-07-23T14:54:28;4.85;;;4.05;;
18176;SDS011;9213;50.858;3.964;2022-07-23T14:56:56;4.75;;;4.20;;
18176;SDS011;9213;50.858;3.964;2022-07-23T14:59:24;4.32;;;3.95;;
18176;SDS011;9213;50.858;3.964;2022-07-23T15:01:51;5.18;;;4.07;;
18176;SDS011;9213;50.858;3.964;2022-07-23T15:04:19;4.80;;;4.38;;
18176;SDS011;9213;50.858;3.964;2022-07-23T15:06:46;4.53;;;4.05;;